Time;durP1;ratioP1;P1;durP2;ratioP2;P2;SDS_P1;SDS_P2;PMS_P1;PMS_P2;Temp;Humidity;BMP_temperature;BMP_pressure;BME280_temperature;BME280_humidity;BME280_pressure;Samples;Min_cycle;Max_cycle;Signal;HPM_P1;HPM_P2
2022/05/23 00:01:30;;;;;;;4.03;2.10;;;19.60;70.40;;;;;;7365652;19;21146;-79
2022/05/23 00:04:00;;;;;;;2.53;1.83;;;19.60;69.90;;;;;;7371670;19;20415;-78
2022/05/23 00:06:32;;;;;;;1.77;1.67;;;19.70;70.20;;;;;;7374656;19;20425;-79
2022/05/23 00:09:01;;;;;;;2.70;2.33;;;19.80;69.60;;;;;;7359857;19;20419;-77
2022/05/23 00:11:33;;;;;;;2.17;1.90;;;19.80;70.00;;;;;;7370309;19;21409;-78
2022/05/23 00:14:03;;;;;;;3.23;2.10;;;19.90;70.00;;;;;;7376528;19;20416;-78
2022/05/23 00:16:37;;;;;;;4.30;2.13;;;19.80;70.30;;;;;;7371417;19;21118;-77
2022/05/23 00:19:09;;;;;;;4.23;2.20;;;19.50;71.40;;;;;;7366568;19;20408;-78
2022/05/23 00:21:42;;;;;;;1.83;1.73;;;19.50;71.90;;;;;;7380325;19;20429;-77
2022/05/23 00:24:13;;;;;;;3.30;2.10;;;19.50;71.70;;;;;;7366458;19;20426;-78
2022/05/23 00:26:43;;;;;;;3.20;1.87;;;19.40;72.40;;;;;;7378140;19;20375;-78
2022/05/23 00:29:13;;;;;;;3.17;2.17;;;19.30;73.20;;;;;;7363632;19;21206;-79
2022/05/23 00:35:17;;;;;;;3.10;2.13;;;19.40;73.50;;;;;;7365875;19;20381;-78
2022/05/23 00:37:17;;;;;;;2.00;1.90;;;19.00;75.00;;;;;;7374738;19;20433;-78
2022/05/23 00:39:46;;;;;;;2.30;2.10;;;18.60;76.80;;;;;;7369596;19;21019;-78
2022/05/23 00:45:06;;;;;;;2.87;1.87;;;18.80;76.00;;;;;;7370277;19;20744;-78
2022/05/23 00:47:36;;;;;;;2.60;1.77;;;19.00;75.30;;;;;;7366997;19;20393;-78
2022/05/23 00:50:10;;;;;;;2.40;1.77;;;19.10;73.40;;;;;;7364610;19;20416;-77
2022/05/23 00:52:49;;;;;;;3.40;1.73;;;19.10;74.10;;;;;;7373887;19;20388;-77
2022/05/23 00:55:23;;;;;;;6.10;1.93;;;18.70;76.60;;;;;;7367463;19;20420;-77
2022/05/23 00:57:58;;;;;;;2.23;2.03;;;18.50;78.10;;;;;;7353806;19;20837;-77
2022/05/23 01:00:27;;;;;;;2.17;1.70;;;18.30;79.00;;;;;;7363147;19;20404;-77
2022/05/23 01:03:03;;;;;;;6.90;2.10;;;18.50;78.40;;;;;;7373410;19;20412;-78
2022/05/23 01:05:34;;;;;;;2.70;2.00;;;18.50;78.80;;;;;;7348203;19;20411;-77
2022/05/23 01:08:07;;;;;;;3.00;2.40;;;18.20;80.10;;;;;;7370584;19;20956;-77
2022/05/23 01:10:45;;;;;;;2.33;1.97;;;18.00;81.50;;;;;;7366801;19;20407;-78
2022/05/23 01:13:17;;;;;;;4.53;1.90;;;17.80;82.90;;;;;;7364941;19;20993;-77
2022/05/23 01:15:52;;;;;;;2.97;2.40;;;17.90;83.10;;;;;;7362576;19;20407;-77
2022/05/23 01:18:24;;;;;;;2.37;1.97;;;17.80;83.20;;;;;;7362916;19;20771;-78
2022/05/23 01:21:00;;;;;;;2.93;2.00;;;17.50;85.10;;;;;;7373797;19;20408;-76
2022/05/23 01:23:46;;;;;;;2.13;1.93;;;17.30;86.90;;;;;;7363874;19;20407;-77
2022/05/23 01:26:26;;;;;;;3.07;1.83;;;17.70;85.30;;;;;;7362104;19;20412;-77
2022/05/23 01:29:02;;;;;;;2.47;1.90;;;18.00;83.60;;;;;;7371954;19;20492;-77
2022/05/23 01:31:53;;;;;;;3.60;2.07;;;17.70;84.70;;;;;;7371500;19;20845;-77
2022/05/23 01:34:32;;;;;;;1.90;1.67;;;18.00;83.50;;;;;;7363182;19;20404;-77
2022/05/23 01:37:08;;;;;;;4.10;2.50;;;17.80;84.60;;;;;;7373805;19;20992;-77
2022/05/23 01:39:50;;;;;;;3.37;2.30;;;17.70;85.20;;;;;;7364041;19;20536;-78
2022/05/23 01:42:36;;;;;;;2.73;2.23;;;17.40;86.80;;;;;;7371026;19;20404;-78
2022/05/23 01:45:07;;;;;;;4.20;2.07;;;17.40;87.60;;;;;;7366086;19;20420;-77
2022/05/23 01:47:37;;;;;;;2.73;1.77;;;17.50;87.00;;;;;;7362501;19;20423;-78
2022/05/23 01:50:08;;;;;;;2.63;2.13;;;17.60;86.80;;;;;;7364837;19;20416;-78
2022/05/23 01:52:44;;;;;;;1.77;1.67;;;17.80;85.30;;;;;;7368089;19;20418;-78
2022/05/23 01:55:23;;;;;;;2.07;1.80;;;17.40;88.00;;;;;;7363504;19;20387;-78
2022/05/23 02:01:25;;;;;;;2.33;2.13;;;17.20;89.80;;;;;;7365510;19;20412;-78
2022/05/23 02:04:00;;;;;;;2.30;2.10;;;17.40;88.20;;;;;;7361429;19;20404;-78
2022/05/23 02:06:39;;;;;;;4.37;2.20;;;17.60;87.00;;;;;;7367768;19;20498;-78
2022/05/23 02:09:17;;;;;;;4.73;2.37;;;17.80;85.80;;;;;;7353699;19;20452;-79
2022/05/23 02:12:04;;;;;;;2.20;2.00;;;17.50;87.20;;;;;;7364617;19;20421;-77
2022/05/23 02:14:39;;;;;;;2.73;1.97;;;17.20;88.70;;;;;;7364897;19;20493;-77
2022/05/23 02:17:20;;;;;;;3.60;2.20;;;17.30;89.80;;;;;;7366294;19;20412;-77
2022/05/23 02:19:49;;;;;;;2.77;2.57;;;17.00;90.20;;;;;;7363659;19;20405;-78
2022/05/23 02:22:25;;;;;;;2.00;1.90;;;17.00;90.30;;;;;;7355017;19;20427;-78
2022/05/23 02:25:06;;;;;;;2.73;1.80;;;17.40;87.90;;;;;;7362509;19;20867;-78
2022/05/23 02:27:35;;;;;;;2.90;2.00;;;17.40;86.90;;;;;;7367278;19;20737;-78
2022/05/23 02:30:10;;;;;;;3.00;2.80;;;17.40;87.10;;;;;;7361117;19;20408;-78
2022/05/23 02:32:39;;;;;;;3.40;1.90;;;17.40;86.90;;;;;;7366230;19;21022;-78
2022/05/23 02:35:13;;;;;;;3.17;1.93;;;17.40;87.70;;;;;;7359118;19;20746;-78
2022/05/23 02:37:46;;;;;;;3.60;2.30;;;17.20;89.10;;;;;;7363694;19;20426;-78
2022/05/23 02:40:16;;;;;;;4.53;1.70;;;17.30;88.00;;;;;;7368967;19;21206;-78
2022/05/23 02:42:48;;;;;;;3.23;1.90;;;17.40;87.90;;;;;;7361519;19;20812;-78
2022/05/23 02:45:21;;;;;;;4.77;1.60;;;17.50;87.50;;;;;;7369527;19;20507;-78
2022/05/23 02:47:51;;;;;;;3.83;2.20;;;17.60;87.10;;;;;;7358788;19;20419;-78
2022/05/23 02:50:23;;;;;;;2.70;1.90;;;17.60;86.10;;;;;;7362758;19;24281;-78
2022/05/23 02:52:53;;;;;;;2.90;2.40;;;17.20;88.50;;;;;;7378240;19;20412;-78
2022/05/23 02:55:27;;;;;;;2.20;2.10;;;17.20;89.60;;;;;;7368346;19;20412;-78
2022/05/23 02:57:59;;;;;;;6.87;2.20;;;17.10;90.00;;;;;;7368704;19;21085;-78
2022/05/23 03:00:35;;;;;;;2.23;2.07;;;16.90;90.80;;;;;;7370554;19;20429;-77
2022/05/23 03:03:08;;;;;;;2.60;2.10;;;16.90;91.00;;;;;;7368564;19;20408;-77
2022/05/23 03:06:01;;;;;;;5.47;2.60;;;17.90;90.00;;;;;;7368968;19;20431;-78
2022/05/23 03:08:34;;;;;;;2.53;1.77;;;17.50;88.20;;;;;;7369930;19;20408;-78
2022/05/23 03:11:08;;;;;;;1.80;1.70;;;17.60;88.00;;;;;;7367764;19;20408;-78
2022/05/23 03:13:38;;;;;;;2.27;2.10;;;17.60;87.90;;;;;;7369120;19;20451;-78
2022/05/23 03:16:13;;;;;;;3.20;2.50;;;17.70;87.70;;;;;;7373245;19;20392;-78
2022/05/23 03:18:45;;;;;;;4.73;2.50;;;17.60;87.90;;;;;;7363499;19;20430;-78
2022/05/23 03:26:58;;;;;;;2.10;2.00;;;17.50;88.00;;;;;;7371101;19;21269;-78
2022/05/23 03:27:01;;;;;;;3.50;2.20;;;17.10;90.50;;;;;;7366969;19;20927;-78
2022/05/23 03:29:40;;;;;;;2.47;2.20;;;17.40;90.00;;;;;;7368276;19;21113;-78
2022/05/23 03:32:15;;;;;;;2.03;1.80;;;17.50;88.80;;;;;;7364242;19;20404;-77
2022/05/23 03:34:44;;;;;;;2.93;1.87;;;17.00;90.10;;;;;;7368959;19;20419;-77
2022/05/23 03:37:18;;;;;;;2.73;1.87;;;16.80;91.00;;;;;;7371574;19;20416;-78
2022/05/23 03:39:48;;;;;;;3.00;2.10;;;17.00;90.40;;;;;;7369560;19;20421;-78
2022/05/23 03:42:18;;;;;;;3.10;2.43;;;17.30;90.00;;;;;;7369291;19;21193;-77
2022/05/23 03:44:52;;;;;;;3.10;2.00;;;17.10;89.80;;;;;;7364813;19;21087;-78
2022/05/23 03:47:24;;;;;;;1.80;1.67;;;16.90;90.70;;;;;;7367952;19;20964;-79
2022/05/23 03:49:54;;;;;;;2.20;2.00;;;16.80;91.30;;;;;;7365148;19;20397;-77
2022/05/23 03:52:27;;;;;;;3.67;2.33;;;17.00;90.40;;;;;;7365708;19;21599;-78
2022/05/23 03:54:59;;;;;;;2.50;2.07;;;17.10;90.00;;;;;;7365877;19;20780;-77
2022/05/23 03:57:29;;;;;;;2.33;2.13;;;17.00;89.90;;;;;;7362932;19;20466;-77
2022/05/23 03:59:59;;;;;;;3.03;2.40;;;17.30;89.00;;;;;;7361514;19;21610;-78
2022/05/23 04:02:33;;;;;;;2.90;2.17;;;17.50;87.70;;;;;;7369522;19;20365;-77
2022/05/23 04:05:04;;;;;;;3.87;2.73;;;17.90;85.70;;;;;;7360598;19;20414;-76
2022/05/23 04:07:52;;;;;;;4.43;3.33;;;17.90;84.60;;;;;;7366209;19;20480;-74
2022/05/23 04:10:32;;;;;;;7.83;3.00;;;18.20;87.90;;;;;;7355198;19;20409;-75
2022/05/23 04:13:02;;;;;;;4.33;2.70;;;18.40;91.40;;;;;;7357186;19;21392;-75
2022/05/23 04:15:31;;;;;;;5.40;3.20;;;18.40;92.10;;;;;;7361835;19;20423;-76
2022/05/23 04:18:06;;;;;;;5.90;2.67;;;18.60;91.00;;;;;;7366792;19;20408;-75
2022/05/23 04:20:36;;;;;;;3.40;2.87;;;18.70;90.40;;;;;;7364708;19;20416;-75
2022/05/23 04:23:16;;;;;;;4.50;2.43;;;18.70;88.70;;;;;;7359972;19;20408;-75
2022/05/23 04:25:51;;;;;;;4.87;2.30;;;18.70;86.10;;;;;;7361896;19;20415;-75
2022/05/23 04:28:23;;;;;;;4.20;2.70;;;18.70;86.10;;;;;;7372250;19;20972;-75
2022/05/23 04:30:52;;;;;;;2.60;2.40;;;18.70;86.80;;;;;;7391420;19;20381;-75
2022/05/23 04:36:11;;;;;;;2.87;2.63;;;18.90;83.40;;;;;;7412861;19;20486;-75
2022/05/23 04:38:44;;;;;;;3.73;2.57;;;18.90;86.70;;;;;;7417043;19;20380;-74
2022/05/23 04:41:16;;;;;;;2.90;2.40;;;19.00;84.40;;;;;;7414486;19;20695;-75
2022/05/23 04:43:57;;;;;;;2.57;2.37;;;19.00;87.00;;;;;;7414190;19;20459;-76
2022/05/23 04:46:30;;;;;;;2.73;2.53;;;18.60;90.70;;;;;;7393197;19;20724;-74
2022/05/23 04:52:06;;;;;;;7.10;2.90;;;17.90;95.30;;;;;;7377395;19;20408;-74
2022/05/23 04:54:43;;;;;;;2.93;2.50;;;17.80;95.40;;;;;;7375249;19;20387;-75
2022/05/23 04:57:15;;;;;;;4.63;2.50;;;17.70;96.80;;;;;;7365594;19;20447;-74
2022/05/23 04:59:45;;;;;;;4.73;2.60;;;17.70;97.10;;;;;;7372690;19;22438;-75
2022/05/23 05:02:23;;;;;;;3.33;2.30;;;17.70;98.30;;;;;;7368653;19;21296;-75
2022/05/23 05:05:01;;;;;;;3.50;3.20;;;17.60;99.10;;;;;;7368370;19;20364;-75
2022/05/23 05:07:31;;;;;;;3.13;2.63;;;17.40;99.90;;;;;;7373944;19;20396;-75
2022/05/23 05:10:03;;;;;;;4.40;3.00;;;16.90;99.90;;;;;;7369491;19;20419;-74
2022/05/23 05:12:33;;;;;;;4.10;3.30;;;16.90;99.90;;;;;;7372062;19;20507;-74
2022/05/23 05:15:03;;;;;;;3.10;2.80;;;17.20;99.90;;;;;;7366174;19;20420;-75
2022/05/23 05:17:35;;;;;;;3.37;2.57;;;17.60;99.90;;;;;;7366610;19;20413;-75
2022/05/23 05:20:08;;;;;;;3.10;2.87;;;17.60;99.90;;;;;;7373389;19;21258;-74
2022/05/23 05:22:56;;;;;;;5.90;2.47;;;17.40;99.90;;;;;;7369221;19;20431;-74
2022/05/23 05:25:46;;;;;;;6.07;3.33;;;17.20;99.90;;;;;;7370131;19;20388;-75
2022/05/23 05:28:21;;;;;;;3.87;2.90;;;17.00;99.90;;;;;;7371411;19;20411;-75
2022/05/23 05:30:56;;;;;;;4.47;3.20;;;16.90;99.90;;;;;;7368204;19;20603;-75
2022/05/23 05:33:33;;;;;;;4.20;3.40;;;16.90;99.90;;;;;;7372519;19;20391;-75
2022/05/23 05:36:15;;;;;;;4.80;3.13;;;16.80;99.90;;;;;;7366205;19;20404;-75
2022/05/23 05:38:50;;;;;;;4.70;3.10;;;16.80;99.90;;;;;;7371713;19;20379;-75
2022/05/23 05:41:24;;;;;;;3.77;2.80;;;17.00;99.90;;;;;;7371938;19;20750;-75
2022/05/23 05:44:00;;;;;;;2.83;2.63;;;17.10;99.90;;;;;;7366447;19;20383;-75
2022/05/23 05:46:41;;;;;;;3.23;2.63;;;17.20;99.90;;;;;;7366022;19;21090;-75
2022/05/23 05:49:21;;;;;;;3.13;2.83;;;17.30;99.90;;;;;;7372989;19;20368;-75
2022/05/23 05:52:00;;;;;;;3.70;3.40;;;17.60;99.90;;;;;;7361254;19;20676;-75
2022/05/23 05:54:50;;;;;;;3.97;3.20;;;17.80;99.90;;;;;;7370142;19;20428;-75
2022/05/23 05:57:24;;;;;;;6.10;3.10;;;17.70;99.90;;;;;;7369260;19;20483;-75
2022/05/23 05:59:56;;;;;;;4.47;3.20;;;17.70;99.90;;;;;;7369740;19;20939;-75
2022/05/23 06:02:28;;;;;;;6.23;3.20;;;17.50;99.90;;;;;;7366775;19;20518;-75
2022/05/23 06:04:58;;;;;;;4.60;3.07;;;17.70;99.90;;;;;;7368272;19;20988;-75
2022/05/23 06:13:25;;;;;;;3.90;3.00;;;17.60;99.90;;;;;;7361367;19;20434;-75
2022/05/23 06:16:15;;;;;;;4.80;3.10;;;17.70;99.90;;;;;;7368074;19;20412;-75
2022/05/23 06:18:56;;;;;;;3.93;2.93;;;17.70;99.90;;;;;;7354130;19;21087;-75
2022/05/23 06:21:27;;;;;;;6.73;3.40;;;18.10;99.90;;;;;;7366189;19;20400;-76
2022/05/23 06:24:02;;;;;;;4.33;2.90;;;18.10;99.90;;;;;;7368699;19;20404;-75
2022/05/23 06:26:39;;;;;;;6.60;3.10;;;18.20;99.90;;;;;;7370678;19;20549;-76
2022/05/23 06:29:29;;;;;;;7.63;3.53;;;18.10;99.90;;;;;;7360931;19;20393;-75
2022/05/23 06:32:01;;;;;;;4.13;2.93;;;18.20;99.90;;;;;;7367157;19;20416;-75
2022/05/23 06:34:32;;;;;;;5.30;3.40;;;18.40;99.90;;;;;;7368448;19;20431;-75
2022/05/23 06:37:03;;;;;;;5.50;3.20;;;18.50;99.90;;;;;;7363050;19;20416;-76
2022/05/23 06:39:38;;;;;;;5.53;3.77;;;18.60;99.90;;;;;;7358976;19;21066;-83
2022/05/23 06:42:08;;;;;;;5.57;3.60;;;18.80;99.90;;;;;;7364649;19;21404;-81
2022/05/23 06:44:56;;;;;;;5.30;3.20;;;18.50;99.90;;;;;;7363742;19;20388;-82
2022/05/23 06:47:45;;;;;;;7.43;3.60;;;18.30;99.90;;;;;;7369802;19;20463;-83
2022/05/23 06:50:50;;;;;;;5.17;3.30;;;17.60;99.90;;;;;;7358385;19;20842;-84
2022/05/23 06:53:24;;;;;;;3.93;2.87;;;18.40;99.90;;;;;;7352624;19;21432;-82
2022/05/23 06:56:07;;;;;;;5.93;3.73;;;18.20;99.90;;;;;;7361820;19;20451;-82
2022/05/23 06:58:36;;;;;;;4.53;3.17;;;18.20;99.90;;;;;;7369599;19;20404;-82
2022/05/23 07:01:11;;;;;;;5.00;3.17;;;17.80;99.90;;;;;;7349776;19;20404;-79
2022/05/23 07:03:58;;;;;;;5.33;3.40;;;17.20;99.90;;;;;;7354789;19;20397;-79
2022/05/23 07:14:50;;;;;;;3.07;2.77;;;18.50;99.90;;;;;;7361365;19;21012;-76
2022/05/23 07:17:21;;;;;;;3.83;3.43;;;19.20;99.90;;;;;;7389421;19;20475;-79
2022/05/23 07:20:13;;;;;;;3.13;2.50;;;19.50;97.90;;;;;;7409410;19;20400;-76
2022/05/23 07:22:53;;;;;;;3.47;2.50;;;19.50;97.30;;;;;;7406297;19;20427;-77
2022/05/23 07:25:23;;;;;;;4.60;2.77;;;19.60;97.40;;;;;;7409746;19;21031;-77
2022/05/23 07:27:55;;;;;;;4.80;2.70;;;19.70;96.90;;;;;;7406542;19;20662;-77
2022/05/23 07:30:27;;;;;;;3.10;2.90;;;20.10;95.50;;;;;;7403906;19;20392;-76
2022/05/23 07:32:57;;;;;;;3.73;3.03;;;20.30;95.10;;;;;;7386285;19;20372;-77
2022/05/23 07:35:47;;;;;;;5.23;2.93;;;20.50;95.00;;;;;;7372686;19;20420;-75
2022/05/23 07:38:17;;;;;;;4.23;2.70;;;20.20;94.30;;;;;;7386222;19;20415;-77
2022/05/23 07:40:50;;;;;;;3.20;2.80;;;20.40;94.50;;;;;;7391620;19;20388;-76
2022/05/23 07:43:25;;;;;;;4.33;2.50;;;20.70;93.10;;;;;;7394515;19;20533;-76
2022/05/23 07:46:09;;;;;;;6.40;3.20;;;21.00;92.80;;;;;;7392882;19;20400;-76
2022/05/23 07:48:41;;;;;;;2.93;2.67;;;21.30;91.60;;;;;;7382074;19;21054;-76
2022/05/23 07:51:12;;;;;;;2.90;2.60;;;21.30;90.50;;;;;;7382900;19;20415;-76
2022/05/23 08:01:53;;;;;;;4.80;2.67;;;21.80;90.00;;;;;;7375518;19;20401;-76
2022/05/23 08:04:24;;;;;;;3.97;2.53;;;21.70;90.80;;;;;;7371479;19;20899;-76
2022/05/23 08:06:57;;;;;;;3.67;2.30;;;21.80;88.60;;;;;;7372916;19;21143;-77
2022/05/23 08:09:26;;;;;;;3.60;2.43;;;22.20;86.10;;;;;;7371810;19;21096;-75
2022/05/23 08:12:07;;;;;;;2.40;2.20;;;22.50;83.90;;;;;;7375867;19;21034;-75
2022/05/23 08:14:41;;;;;;;2.60;2.40;;;22.40;82.80;;;;;;7372683;19;20420;-75
2022/05/23 08:17:19;;;;;;;3.63;2.33;;;22.60;82.80;;;;;;7370586;19;20499;-76
2022/05/23 08:19:49;;;;;;;2.80;2.00;;;22.80;80.20;;;;;;7377111;19;20412;-75
2022/05/23 08:22:28;;;;;;;4.20;2.50;;;23.30;80.20;;;;;;7371430;19;21035;-75
2022/05/23 08:25:06;;;;;;;2.40;2.20;;;23.00;81.10;;;;;;7375072;19;20436;-75
2022/05/23 08:27:38;;;;;;;2.93;2.63;;;22.90;80.40;;;;;;7367055;19;20545;-75
2022/05/23 08:30:14;;;;;;;6.90;2.93;;;22.40;82.50;;;;;;7370603;19;20420;-75
2022/05/23 08:32:43;;;;;;;3.33;3.03;;;22.30;84.50;;;;;;7372835;19;20887;-75
2022/05/23 08:35:21;;;;;;;3.40;2.27;;;22.30;85.60;;;;;;7374058;19;20487;-75
2022/05/23 08:37:58;;;;;;;4.10;2.70;;;22.00;87.90;;;;;;7377229;19;20501;-75
2022/05/23 08:41:04;;;;;;;3.53;2.60;;;22.10;87.50;;;;;;7368360;19;20408;-75
2022/05/23 08:43:46;;;;;;;5.93;3.17;;;22.00;87.50;;;;;;7371562;19;20879;-76
2022/05/23 08:46:24;;;;;;;3.73;2.83;;;21.50;89.70;;;;;;7370916;19;20371;-75
2022/05/23 08:49:05;;;;;;;4.23;3.03;;;21.50;90.10;;;;;;7367902;19;20415;-77
2022/05/23 08:51:47;;;;;;;4.47;2.97;;;21.70;90.20;;;;;;7367701;19;20392;-76
2022/05/23 08:54:30;;;;;;;3.07;2.77;;;21.60;90.10;;;;;;7373161;19;21013;-76
2022/05/23 08:57:30;;;;;;;4.63;2.50;;;21.60;90.40;;;;;;7361447;19;20950;-76
2022/05/23 09:00:07;;;;;;;3.87;2.87;;;21.90;90.10;;;;;;7374751;19;20921;-76
2022/05/23 09:02:48;;;;;;;2.63;2.43;;;22.30;90.10;;;;;;7361830;19;20401;-74
2022/05/23 09:05:33;;;;;;;3.87;3.23;;;22.40;88.50;;;;;;7364531;19;20409;-76
2022/05/23 09:08:09;;;;;;;3.53;3.13;;;22.30;88.90;;;;;;7358032;19;20405;-76
2022/05/23 09:10:49;;;;;;;3.30;2.70;;;22.50;87.80;;;;;;7369886;19;21127;-75
2022/05/23 09:13:20;;;;;;;2.63;2.43;;;22.50;88.30;;;;;;7369906;19;20412;-75
2022/05/23 09:15:56;;;;;;;4.23;3.23;;;22.30;89.50;;;;;;7374537;19;20501;-75
2022/05/23 09:18:41;;;;;;;5.83;3.90;;;22.10;90.10;;;;;;7357454;19;21082;-75
2022/05/23 09:21:11;;;;;;;4.30;2.70;;;21.90;91.30;;;;;;7372177;19;20421;-76
2022/05/23 09:23:50;;;;;;;3.60;3.30;;;22.50;91.80;;;;;;7374683;19;20376;-76
2022/05/23 09:26:30;;;;;;;5.60;3.30;;;22.00;91.40;;;;;;7375856;19;21052;-76
2022/05/23 09:28:59;;;;;;;3.93;3.53;;;22.30;91.00;;;;;;7374804;19;20416;-76
2022/05/23 09:31:38;;;;;;;3.13;2.80;;;22.50;90.70;;;;;;7371230;19;20413;-74
2022/05/23 09:34:30;;;;;;;5.43;3.70;;;22.40;91.10;;;;;;7369665;19;20921;-77
2022/05/23 09:37:00;;;;;;;6.00;2.97;;;22.30;92.20;;;;;;7373670;19;20421;-75
2022/05/23 09:39:34;;;;;;;4.17;2.90;;;22.50;92.20;;;;;;7361287;19;20401;-75
2022/05/23 09:47:50;;;;;;;4.80;2.90;;;23.40;89.70;;;;;;7357954;19;20368;-75
2022/05/23 09:50:38;;;;;;;5.43;3.33;;;23.60;88.30;;;;;;7357128;19;20981;-75
2022/05/23 09:53:17;;;;;;;4.83;3.00;;;23.40;88.60;;;;;;7363701;19;20382;-75
2022/05/23 09:55:48;;;;;;;3.07;2.77;;;23.60;87.50;;;;;;7354169;19;20860;-75
2022/05/23 09:58:31;;;;;;;4.40;3.60;;;23.90;86.80;;;;;;7366351;19;21059;-75
2022/05/23 10:01:07;;;;;;;5.27;3.63;;;24.20;84.40;;;;;;7364177;19;20360;-75
2022/05/23 10:03:50;;;;;;;6.17;2.73;;;24.70;86.20;;;;;;7367556;19;20420;-76
2022/05/23 10:06:35;;;;;;;3.07;2.77;;;25.60;79.70;;;;;;7368159;19;20543;-76
2022/05/23 10:09:08;;;;;;;6.40;3.10;;;25.10;78.70;;;;;;7362610;19;20376;-76
2022/05/23 10:12:00;;;;;;;6.23;3.10;;;25.20;79.70;;;;;;7368177;19;22168;-76
2022/05/23 10:14:45;;;;;;;5.13;2.93;;;25.20;79.20;;;;;;7375521;19;21666;-75
2022/05/23 10:17:28;;;;;;;3.80;2.30;;;25.00;80.70;;;;;;7364889;19;20419;-76
2022/05/23 10:20:27;;;;;;;3.07;2.57;;;25.00;77.60;;;;;;7379850;19;20434;-74
2022/05/23 10:23:03;;;;;;;3.20;2.70;;;25.10;77.80;;;;;;7375615;19;20400;-74
2022/05/23 10:25:40;;;;;;;3.20;2.60;;;25.00;77.60;;;;;;7372774;19;20368;-75
2022/05/23 10:28:14;;;;;;;5.07;4.33;;;25.20;78.10;;;;;;7368686;19;20427;-76
2022/05/23 10:30:58;;;;;;;5.20;3.77;;;24.90;80.20;;;;;;7372642;19;20376;-76
2022/05/23 10:33:32;;;;;;;6.43;3.37;;;24.90;80.70;;;;;;7376431;19;20418;-76
2022/05/23 10:36:05;;;;;;;3.93;3.27;;;24.90;80.90;;;;;;7382223;19;20909;-75
2022/05/23 10:44:27;;;;;;;5.07;3.30;;;24.70;81.40;;;;;;7378643;19;20373;-76
2022/05/23 10:47:14;;;;;;;5.77;3.03;;;24.70;84.20;;;;;;7371023;19;20408;-76
2022/05/23 10:49:53;;;;;;;3.60;3.30;;;24.40;84.50;;;;;;7373730;19;20715;-75
2022/05/23 10:52:33;;;;;;;5.27;3.00;;;24.30;84.30;;;;;;7379416;19;20427;-76
2022/05/23 10:55:14;;;;;;;5.03;3.47;;;24.40;82.70;;;;;;7378434;19;20432;-76
2022/05/23 10:58:01;;;;;;;4.37;2.97;;;24.30;84.70;;;;;;7373890;19;20424;-75
2022/05/23 11:00:42;;;;;;;4.93;3.00;;;24.10;85.20;;;;;;7371647;19;20408;-75
2022/05/23 11:03:19;;;;;;;3.37;2.77;;;24.00;85.70;;;;;;7377208;19;20415;-75
2022/05/23 11:05:58;;;;;;;7.70;3.40;;;24.00;84.20;;;;;;7375876;19;21500;-76
2022/05/23 11:08:40;;;;;;;4.40;3.63;;;23.80;89.00;;;;;;7376656;19;20375;-75
2022/05/23 11:11:19;;;;;;;7.90;3.70;;;23.60;90.60;;;;;;7373972;19;20411;-75
2022/05/23 11:14:08;;;;;;;4.80;3.10;;;23.40;92.00;;;;;;7379128;19;20383;-76
2022/05/23 11:16:46;;;;;;;5.73;3.10;;;23.20;93.30;;;;;;7380931;19;20413;-75
2022/05/23 11:19:30;;;;;;;5.20;4.07;;;23.10;93.40;;;;;;7381722;19;20734;-75
2022/05/23 11:22:05;;;;;;;5.70;4.27;;;22.70;99.90;;;;;;7379599;19;20797;-75
2022/05/23 11:24:43;;;;;;;9.53;4.50;;;22.20;99.90;;;;;;7381908;19;20420;-75
2022/05/23 11:35:48;;;;;;;6.93;4.90;;;20.90;99.90;;;;;;7377251;19;20423;-75
2022/05/23 11:38:19;;;;;;;7.07;5.10;;;20.60;99.90;;;;;;7379686;19;20440;-74
2022/05/23 11:41:01;;;;;;;16.10;6.80;;;20.60;99.90;;;;;;7377946;19;20786;-74
2022/05/23 11:43:33;;;;;;;8.93;6.10;;;20.50;99.90;;;;;;7379736;19;20463;-74
2022/05/23 11:46:03;;;;;;;7.73;6.03;;;20.20;99.90;;;;;;7375100;19;20404;-74
2022/05/23 11:48:49;;;;;;;11.53;4.90;;;20.10;99.90;;;;;;7381974;19;20379;-74
2022/05/23 11:51:30;;;;;;;9.17;4.07;;;19.80;99.90;;;;;;7379560;19;20396;-73
2022/05/23 11:54:08;;;;;;;6.33;3.47;;;19.70;99.90;;;;;;7378397;19;20962;-74
2022/05/23 11:57:07;;;;;;;9.77;3.30;;;19.40;99.90;;;;;;7375646;19;20724;-74
2022/05/23 12:00:07;;;;;;;6.10;3.37;;;18.80;99.90;;;;;;7380240;19;20424;-74
2022/05/23 12:02:42;;;;;;;5.73;3.00;;;18.50;99.90;;;;;;7376802;19;20396;-73
2022/05/23 12:05:15;;;;;;;9.00;3.30;;;18.50;99.90;;;;;;7377964;19;20517;-74
2022/05/23 12:08:01;;;;;;;6.07;2.83;;;18.40;99.90;;;;;;7378878;19;20364;-74
2022/05/23 12:10:58;;;;;;;7.50;3.30;;;18.30;99.90;;;;;;7378289;19;20977;-74
2022/05/23 12:13:58;;;;;;;5.70;3.30;;;17.80;99.90;;;;;;7374334;19;20408;-75
2022/05/23 12:17:05;;;;;;;9.03;3.07;;;17.50;99.90;;;;;;7365258;19;20424;-71
2022/05/23 12:19:54;;;;;;;5.07;2.53;;;17.70;99.90;;;;;;7378567;19;21101;-74
2022/05/23 12:22:32;;;;;;;6.40;2.83;;;17.70;99.90;;;;;;7374558;19;20422;-74
2022/05/23 12:25:27;;;;;;;6.90;3.10;;;17.70;99.90;;;;;;7364306;19;20427;-73
2022/05/23 12:28:20;;;;;;;5.93;3.10;;;17.60;99.90;;;;;;7369246;19;20409;-74
2022/05/23 12:31:11;;;;;;;7.53;2.40;;;17.60;99.90;;;;;;7359617;19;20418;-74
2022/05/23 12:33:51;;;;;;;3.60;2.47;;;17.60;99.90;;;;;;7371527;19;20408;-74
2022/05/23 12:36:29;;;;;;;9.20;3.27;;;17.60;99.90;;;;;;7375052;19;20408;-74
2022/05/23 12:39:23;;;;;;;6.70;2.90;;;17.80;99.90;;;;;;7371600;19;20400;-75
2022/05/23 12:42:09;;;;;;;4.37;2.73;;;18.10;99.90;;;;;;7359933;19;21115;-75
2022/05/23 12:45:11;;;;;;;9.37;3.10;;;18.50;99.90;;;;;;7370381;19;20375;-75
2022/05/23 12:48:24;;;;;;;7.77;3.30;;;19.00;99.90;;;;;;7365009;19;20924;-75
2022/05/23 12:51:07;;;;;;;7.60;3.23;;;19.50;99.90;;;;;;7363948;19;20416;-75
2022/05/23 12:54:08;;;;;;;4.53;3.53;;;19.80;99.90;;;;;;7364982;19;20943;-76
2022/05/23 12:56:49;;;;;;;6.93;3.67;;;20.20;99.90;;;;;;7370120;19;20455;-75
2022/05/23 12:59:42;;;;;;;6.80;3.40;;;20.30;99.90;;;;;;7362206;19;20437;-76
2022/05/23 13:02:15;;;;;;;11.23;4.20;;;20.60;99.90;;;;;;7357897;19;21019;-76
2022/05/23 13:04:51;;;;;;;5.10;3.03;;;20.90;99.90;;;;;;7371078;19;20528;-79
2022/05/23 13:07:26;;;;;;;5.27;3.13;;;21.30;99.90;;;;;;7372176;19;20507;-80
2022/05/23 13:10:04;;;;;;;6.17;2.80;;;21.70;99.90;;;;;;7365359;19;20435;-79
2022/05/23 13:12:41;;;;;;;3.90;2.40;;;22.10;99.90;;;;;;7361364;19;20429;-78
2022/05/23 13:15:11;;;;;;;5.40;2.40;;;22.20;99.90;;;;;;7361956;19;20404;-81
2022/05/23 13:17:44;;;;;;;8.10;2.60;;;22.30;99.90;;;;;;7335267;19;20472;-81
2022/05/23 13:23:14;;;;;;;10.20;2.47;;;22.60;99.90;;;;;;7404406;19;20400;-81
2022/05/23 13:25:47;;;;;;;4.80;2.57;;;23.10;99.90;;;;;;7412379;19;20429;-81
2022/05/23 13:28:19;;;;;;;3.97;2.17;;;24.10;99.90;;;;;;7412175;19;20396;-79
2022/05/23 13:30:55;;;;;;;8.80;2.50;;;24.40;99.90;;;;;;7391179;19;20419;-79
2022/05/23 13:33:32;;;;;;;3.17;1.93;;;25.30;99.90;;;;;;7394186;19;20817;-80
2022/05/23 13:36:04;;;;;;;5.20;3.10;;;25.90;99.90;;;;;;7390497;19;20379;-81
2022/05/23 13:38:36;;;;;;;3.87;2.10;;;26.30;99.90;;;;;;7376942;19;20416;-80
2022/05/23 13:41:09;;;;;;;8.10;2.83;;;26.40;99.90;;;;;;7376223;19;20404;-80
2022/05/23 13:43:48;;;;;;;7.23;3.07;;;25.80;99.90;;;;;;7392686;19;20405;-80
2022/05/23 13:46:23;;;;;;;3.13;2.10;;;24.80;99.90;;;;;;7368020;19;21046;-81
2022/05/23 13:48:56;;;;;;;7.77;2.73;;;24.40;99.90;;;;;;7375607;19;20415;-79
2022/05/23 13:51:29;;;;;;;4.57;2.70;;;24.40;99.90;;;;;;7378408;19;20423;-79
2022/05/23 13:54:03;;;;;;;4.70;2.10;;;24.30;99.90;;;;;;7378137;19;20383;-79
2022/05/23 13:56:41;;;;;;;5.80;2.27;;;24.00;99.90;;;;;;7367651;19;21360;-78
2022/05/23 13:59:15;;;;;;;4.97;2.37;;;23.60;99.90;;;;;;7372667;19;20416;-79
2022/05/23 14:01:49;;;;;;;4.27;2.37;;;23.70;99.90;;;;;;7369359;19;20380;-78
2022/05/23 14:04:27;;;;;;;5.87;1.90;;;23.70;99.90;;;;;;7356837;19;20400;-78
2022/05/23 14:07:03;;;;;;;3.40;1.80;;;23.80;99.90;;;;;;7362848;19;20376;-79
2022/05/23 14:09:36;;;;;;;5.63;3.10;;;23.80;99.90;;;;;;7350200;19;20403;-79
2022/05/23 14:12:14;;;;;;;3.70;2.53;;;23.60;99.90;;;;;;7363271;19;21345;-79
2022/05/23 14:14:47;;;;;;;3.17;2.17;;;23.40;99.90;;;;;;7355220;19;21187;-79
2022/05/23 14:17:19;;;;;;;4.30;2.20;;;23.30;99.90;;;;;;7363415;19;20424;-79
2022/05/23 14:19:53;;;;;;;6.33;2.40;;;23.20;99.90;;;;;;7342925;19;21050;-79
2022/05/23 14:22:25;;;;;;;3.43;2.07;;;23.30;99.90;;;;;;7365657;19;21253;-79
2022/05/23 14:24:58;;;;;;;10.83;2.67;;;23.50;99.90;;;;;;7362725;19;20729;-79
2022/05/23 14:27:35;;;;;;;3.63;2.47;;;23.90;99.90;;;;;;7367432;19;20753;-79
2022/05/23 14:30:19;;;;;;;3.07;1.53;;;23.80;99.90;;;;;;7365795;19;21884;-79
2022/05/23 14:32:57;;;;;;;6.60;2.10;;;23.90;99.90;;;;;;7368849;19;20384;-79
2022/05/23 14:35:34;;;;;;;4.53;2.90;;;24.10;99.90;;;;;;7368749;19;20472;-79
2022/05/23 14:38:04;;;;;;;4.93;2.00;;;24.20;99.90;;;;;;7353967;19;20415;-79
2022/05/23 14:40:41;;;;;;;5.07;1.93;;;24.30;99.90;;;;;;7363354;19;20419;-79